Time;durP1;ratioP1;P1;durP2;ratioP2;P2;SDS_P1;SDS_P2;PMS_P1;PMS_P2;Temp;Humidity;BMP_temperature;BMP_pressure;BME280_temperature;BME280_humidity;BME280_pressure;Samples;Min_cycle;Max_cycle;Signal;HPM_P1;HPM_P2
2023/07/22 00:01:22;;;;;;;4.20;3.60;;;;;;;16.68;68.57;100185.56;109247;1257;63827;-69
2023/07/22 00:03:50;;;;;;;5.30;3.80;;;;;;;16.69;68.71;100180.34;109082;1258;58143;-71
2023/07/22 00:06:18;;;;;;;6.30;4.20;;;;;;;16.70;68.80;100175.45;109086;1257;58219;-69
2023/07/22 00:08:46;;;;;;;5.40;4.10;;;;;;;16.71;68.77;100173.39;109082;1257;63876;-70
2023/07/22 00:11:14;;;;;;;7.30;4.20;;;;;;;16.71;68.71;100167.53;109029;1257;58189;-70
2023/07/22 00:13:43;;;;;;;5.30;4.20;;;;;;;16.70;68.74;100155.26;109040;1257;62447;-70
2023/07/22 00:16:11;;;;;;;5.70;4.20;;;;;;;16.68;68.79;100151.45;109055;1257;58077;-69
2023/07/22 00:18:39;;;;;;;6.70;4.70;;;;;;;16.66;68.86;100152.17;109019;1257;58258;-70
2023/07/22 00:21:08;;;;;;;5.60;4.30;;;;;;;16.64;68.84;100155.48;108861;1257;64853;-68
2023/07/22 00:23:36;;;;;;;6.70;4.30;;;;;;;16.60;69.08;100159.75;108992;1257;58185;-68
2023/07/22 00:26:04;;;;;;;5.30;4.10;;;;;;;16.57;69.17;100150.51;108981;1257;63674;-69
2023/07/22 00:28:32;;;;;;;6.70;3.90;;;;;;;16.55;69.13;100138.69;109106;1257;58173;-78
2023/07/22 00:31:03;;;;;;;5.80;3.90;;;;;;;16.53;69.03;100135.29;109145;1257;58068;-69
2023/07/22 00:33:31;;;;;;;6.40;4.50;;;;;;;16.51;68.91;100136.61;108959;1258;65071;-69
2023/07/22 00:35:58;;;;;;;5.20;4.00;;;;;;;16.48;68.89;100139.98;109076;1257;58231;-70
2023/07/22 00:38:27;;;;;;;6.00;4.10;;;;;;;16.44;68.95;100140.05;108991;1257;64109;-69
2023/07/22 00:40:56;;;;;;;4.90;4.20;;;;;;;16.43;68.86;100138.75;109019;1260;58154;-69
2023/07/22 00:43:25;;;;;;;6.50;4.30;;;;;;;16.41;69.08;100135.75;109041;1257;58228;-70
2023/07/22 00:45:53;;;;;;;5.90;4.30;;;;;;;16.40;69.53;100138.13;109148;1257;65041;-71
2023/07/22 00:48:21;;;;;;;5.50;4.20;;;;;;;16.39;69.78;100138.73;108995;1257;58197;-69
2023/07/22 00:50:48;;;;;;;5.40;4.30;;;;;;;16.40;69.72;100134.80;109138;1257;62468;-70
2023/07/22 00:53:18;;;;;;;5.10;4.20;;;;;;;16.40;69.61;100133.52;109052;1257;58210;-69
2023/07/22 00:55:46;;;;;;;6.30;4.30;;;;;;;16.40;69.53;100140.13;109039;1257;58206;-69
2023/07/22 00:58:15;;;;;;;5.00;4.00;;;;;;;16.40;69.76;100143.25;108915;1257;65059;-69
2023/07/22 01:00:42;;;;;;;4.90;4.30;;;;;;;16.40;69.82;100145.21;109118;1257;58215;-70
2023/07/22 01:03:10;;;;;;;5.10;4.20;;;;;;;16.40;69.74;100150.25;109090;1257;63758;-69
2023/07/22 01:05:39;;;;;;;6.20;4.30;;;;;;;16.40;69.88;100150.89;109044;1260;58150;-69
2023/07/22 01:08:06;;;;;;;6.70;4.80;;;;;;;16.41;69.80;100148.27;109180;1257;58181;-69
2023/07/22 01:10:36;;;;;;;5.40;4.50;;;;;;;16.42;69.80;100144.28;109025;1259;63766;-70
2023/07/22 01:13:07;;;;;;;5.80;4.60;;;;;;;16.43;69.92;100144.05;109037;1259;58528;-69
2023/07/22 01:15:37;;;;;;;5.10;4.60;;;;;;;16.43;70.09;100144.98;108927;1261;63665;-69
2023/07/22 01:18:08;;;;;;;6.80;4.30;;;;;;;16.41;69.93;100142.11;108961;1260;58106;-69
2023/07/22 01:20:39;;;;;;;5.70;4.50;;;;;;;16.38;69.97;100144.36;108979;1259;58093;-68
2023/07/22 01:23:11;;;;;;;5.10;4.50;;;;;;;16.35;70.01;100146.49;108959;1259;64954;-68
2023/07/22 01:25:42;;;;;;;7.80;4.60;;;;;;;16.32;70.02;100150.17;109037;1260;58222;-68
2023/07/22 01:28:13;;;;;;;6.10;4.60;;;;;;;16.31;70.25;100149.08;108923;1259;63749;-69
2023/07/22 01:30:45;;;;;;;7.80;4.50;;;;;;;16.31;70.36;100143.90;108870;1261;58183;-69
2023/07/22 01:33:16;;;;;;;6.90;4.50;;;;;;;16.31;70.48;100140.03;109022;1259;58219;-69
2023/07/22 01:35:47;;;;;;;6.30;4.50;;;;;;;16.28;70.71;100135.85;109020;1260;64952;-68
2023/07/22 01:38:17;;;;;;;6.00;4.20;;;;;;;16.26;70.64;100130.98;108936;1260;58322;-68
2023/07/22 01:40:48;;;;;;;5.00;4.50;;;;;;;16.21;70.63;100125.21;108981;1260;62475;-73
2023/07/22 01:43:18;;;;;;;7.10;4.70;;;;;;;16.18;70.43;100127.88;108930;1264;58194;-69
2023/07/22 01:45:50;;;;;;;6.10;4.60;;;;;;;16.14;70.33;100130.98;108877;1260;58088;-69
2023/07/22 01:48:22;;;;;;;7.40;4.50;;;;;;;16.11;70.47;100131.27;108977;1260;65493;-69
2023/07/22 01:50:53;;;;;;;6.20;4.50;;;;;;;16.09;70.43;100129.22;108940;1260;58210;-69
2023/07/22 01:53:24;;;;;;;5.10;4.60;;;;;;;16.05;70.58;100132.65;108960;1259;62583;-69
2023/07/22 01:55:55;;;;;;;6.30;4.80;;;;;;;16.03;70.73;100132.82;108906;1260;58183;-69
2023/07/22 01:58:26;;;;;;;5.40;4.90;;;;;;;16.03;70.83;100131.09;108913;1259;58093;-69
2023/07/22 02:00:57;;;;;;;6.90;5.10;;;;;;;16.02;71.15;100131.32;108935;1259;72777;-69
2023/07/22 02:03:27;;;;;;;7.80;5.30;;;;;;;16.04;71.16;100131.02;108916;1260;58311;-69
2023/07/22 02:06:05;;;;;;;9.30;6.20;;;;;;;16.05;71.29;100138.02;108867;1259;63918;-69
2023/07/22 02:15:25;;;;;;;9.20;5.30;;;;;;;15.99;71.34;100155.31;102645;1290;600895;-70
2023/07/22 02:17:55;;;;;;;6.60;5.70;;;;;;;15.95;71.59;100154.16;104676;1273;59261;-69
2023/07/22 02:20:23;;;;;;;9.70;6.00;;;;;;;15.94;71.75;100156.66;104819;1266;59382;-68
2023/07/22 02:22:51;;;;;;;8.10;6.00;;;;;;;15.96;71.87;100160.60;104782;1266;62158;-68
2023/07/22 02:25:19;;;;;;;6.90;5.80;;;;;;;15.97;72.09;100160.63;104652;1267;59248;-69
2023/07/22 02:27:46;;;;;;;8.80;5.80;;;;;;;15.98;72.15;100164.42;105000;1264;63752;-70
2023/07/22 02:30:15;;;;;;;11.30;5.70;;;;;;;16.00;72.31;100168.15;104911;1260;177123;-69
2023/07/22 02:32:42;;;;;;;8.80;5.80;;;;;;;16.01;72.14;100165.59;104930;1260;59231;-69
2023/07/22 02:35:10;;;;;;;7.50;6.00;;;;;;;16.00;72.22;100164.89;105007;1260;62062;-69
2023/07/22 02:37:38;;;;;;;8.60;6.00;;;;;;;15.99;72.40;100166.09;105164;1266;59254;-69
2023/07/22 02:40:07;;;;;;;7.20;6.40;;;;;;;15.99;72.46;100166.45;105215;1257;62576;-69
2023/07/22 02:42:36;;;;;;;9.20;6.30;;;;;;;15.99;72.47;100167.36;109111;1256;58822;-69
2023/07/22 02:45:07;;;;;;;10.90;6.50;;;;;;;15.99;72.60;100169.69;109149;1254;57468;-68
2023/07/22 02:47:35;;;;;;;9.20;6.40;;;;;;;15.98;72.70;100169.36;109274;1254;62791;-69
2023/07/22 02:50:06;;;;;;;9.20;5.70;;;;;;;16.02;72.86;100169.56;109241;1254;65992;-69
2023/07/22 02:52:33;;;;;;;7.70;5.80;;;;;;;16.06;73.09;100169.35;109127;1256;62519;-70
2023/07/22 02:55:10;;;;;;;7.50;5.60;;;;;;;16.10;73.21;100163.56;109143;1254;57736;-69
2023/07/22 02:57:38;;;;;;;6.40;5.20;;;;;;;16.15;73.03;100162.52;109072;1256;57301;-69
2023/07/22 03:00:07;;;;;;;6.50;5.10;;;;;;;16.19;73.10;100164.35;109109;1254;64145;-69
2023/07/22 03:02:35;;;;;;;7.10;5.00;;;;;;;16.24;73.31;100161.40;109080;1254;57805;-70
2023/07/22 03:05:09;;;;;;;8.30;5.30;;;;;;;16.27;73.31;100159.54;109295;1254;62463;-70
2023/07/22 03:07:37;;;;;;;7.90;5.60;;;;;;;16.33;73.23;100157.26;109126;1254;58352;-69
2023/07/22 03:10:06;;;;;;;7.60;5.30;;;;;;;16.37;73.15;100153.69;109503;1251;57378;-69
2023/07/22 03:12:34;;;;;;;7.90;4.90;;;;;;;16.40;73.10;100153.44;109607;1251;64232;-69
2023/07/22 03:15:03;;;;;;;7.90;4.90;;;;;;;16.44;73.05;100153.34;109356;1251;58150;-69
2023/07/22 03:17:30;;;;;;;4.90;4.40;;;;;;;16.49;73.15;100153.14;109496;1251;63697;-69
2023/07/22 03:19:58;;;;;;;6.50;5.10;;;;;;;16.53;73.08;100156.83;109444;1251;57309;-69
2023/07/22 03:22:25;;;;;;;5.30;4.50;;;;;;;16.58;72.80;100164.27;109501;1251;57413;-69
2023/07/22 03:24:53;;;;;;;5.60;4.80;;;;;;;16.61;72.73;100164.70;109630;1252;64335;-69
2023/07/22 03:27:21;;;;;;;5.50;4.60;;;;;;;16.64;72.71;100158.31;109524;1253;57380;-69
2023/07/22 03:29:49;;;;;;;8.40;4.90;;;;;;;16.68;72.68;100162.13;109516;1251;62432;-69
2023/07/22 03:32:16;;;;;;;6.00;4.60;;;;;;;16.72;72.57;100160.86;109379;1254;57371;-69
2023/07/22 03:34:44;;;;;;;7.20;4.60;;;;;;;16.76;72.54;100154.83;109482;1254;57400;-68
2023/07/22 03:37:12;;;;;;;7.10;4.40;;;;;;;16.82;72.49;100155.23;109408;1252;62981;-72
2023/07/22 03:39:39;;;;;;;4.70;4.20;;;;;;;16.90;72.29;100153.92;109379;1252;57488;-69
2023/07/22 03:42:07;;;;;;;5.70;4.40;;;;;;;16.96;72.34;100155.17;109517;1253;62626;-68
2023/07/22 03:44:34;;;;;;;5.90;4.30;;;;;;;17.02;72.14;100148.87;109398;1254;57417;-69
2023/07/22 03:47:02;;;;;;;6.20;4.40;;;;;;;17.09;72.08;100148.92;109401;1252;57453;-69
2023/07/22 03:49:30;;;;;;;6.50;4.20;;;;;;;17.16;71.88;100148.64;109505;1252;62838;-68
2023/07/22 03:51:57;;;;;;;6.90;3.90;;;;;;;17.23;71.63;100152.73;109507;1254;58180;-69
2023/07/22 03:54:25;;;;;;;4.80;4.10;;;;;;;17.28;71.40;100150.85;109563;1253;63798;-70
2023/07/22 03:56:52;;;;;;;4.80;3.80;;;;;;;17.35;71.31;100152.43;109420;1254;57296;-68
2023/07/22 03:59:20;;;;;;;5.00;4.10;;;;;;;17.41;71.18;100154.06;109589;1253;57505;-69
2023/07/22 04:01:47;;;;;;;4.40;3.90;;;;;;;17.48;70.81;100157.82;109431;1252;62830;-68
2023/07/22 04:04:15;;;;;;;6.00;3.90;;;;;;;17.51;70.48;100155.63;109584;1251;58119;-69
2023/07/22 04:06:42;;;;;;;5.30;4.00;;;;;;;17.55;70.22;100155.02;109537;1252;62435;-74
2023/07/22 04:09:14;;;;;;;6.60;3.90;;;;;;;17.61;69.99;100157.00;109316;1253;57401;-70
2023/07/22 04:11:41;;;;;;;5.10;4.00;;;;;;;17.66;69.76;100153.45;109449;1254;57370;-69
2023/07/22 04:14:09;;;;;;;5.10;4.10;;;;;;;17.71;69.59;100154.04;109264;1253;64168;-69
2023/07/22 04:16:37;;;;;;;5.20;4.00;;;;;;;17.80;69.53;100147.44;109443;1253;58344;-69
2023/07/22 04:19:04;;;;;;;5.60;3.80;;;;;;;17.90;69.57;100141.08;109255;1254;62536;-69
2023/07/22 04:21:32;;;;;;;4.60;3.60;;;;;;;18.01;69.55;100134.60;109425;1254;57419;-69
2023/07/22 04:24:00;;;;;;;6.50;3.50;;;;;;;18.14;69.59;100127.41;109119;1253;57310;-67
2023/07/22 04:26:28;;;;;;;4.50;3.30;;;;;;;18.29;69.10;100130.35;109445;1253;62977;-69
2023/07/22 04:28:56;;;;;;;4.00;3.20;;;;;;;18.44;68.78;100128.27;109146;1253;58132;-68
2023/07/22 04:31:23;;;;;;;5.40;3.20;;;;;;;18.58;68.55;100125.36;109437;1253;63723;-70
2023/07/22 04:33:51;;;;;;;4.90;3.10;;;;;;;18.73;68.27;100124.13;109465;1253;60762;-69
2023/07/22 04:36:18;;;;;;;3.60;3.00;;;;;;;18.85;68.21;100129.09;109219;1253;57193;-68
2023/07/22 04:38:48;;;;;;;4.70;3.20;;;;;;;18.98;67.78;100132.05;109083;1253;64158;-69
2023/07/22 04:41:16;;;;;;;3.30;2.90;;;;;;;19.08;67.61;100129.45;109475;1252;57416;-68
2023/07/22 04:43:43;;;;;;;5.00;3.10;;;;;;;19.17;67.34;100127.70;109386;1253;63731;-70
2023/07/22 04:46:11;;;;;;;3.20;2.60;;;;;;;19.24;66.98;100131.10;109449;1253;57417;-69
2023/07/22 04:48:38;;;;;;;5.50;2.90;;;;;;;19.29;66.77;100138.00;109538;1253;57280;-68
2023/07/22 04:51:07;;;;;;;4.70;2.90;;;;;;;19.34;66.89;100135.98;109322;1254;64642;-70
2023/07/22 04:53:34;;;;;;;4.60;3.00;;;;;;;19.39;66.75;100133.08;109404;1253;57404;-68
2023/07/22 04:56:02;;;;;;;4.60;2.90;;;;;;;19.43;66.39;100132.98;109393;1253;63723;-69
2023/07/22 04:58:30;;;;;;;4.40;2.90;;;;;;;19.45;66.20;100132.79;109435;1254;57386;-69
2023/07/22 05:00:58;;;;;;;6.70;2.90;;;;;;;19.50;66.18;100135.66;109495;1254;57252;-69
2023/07/22 05:03:26;;;;;;;5.80;2.70;;;;;;;19.54;66.03;100134.28;109481;1253;64237;-69
2023/07/22 05:05:54;;;;;;;6.20;3.10;;;;;;;19.59;65.96;100138.88;109410;1253;58137;-69
2023/07/22 05:08:21;;;;;;;3.30;2.80;;;;;;;19.64;65.75;100136.16;109401;1253;63727;-70
2023/07/22 05:10:49;;;;;;;4.10;3.00;;;;;;;19.67;65.55;100137.15;109403;1257;57383;-69
2023/07/22 05:13:16;;;;;;;4.30;2.80;;;;;;;19.72;65.78;100133.67;109488;1254;57285;-69
2023/07/22 05:15:44;;;;;;;3.70;2.60;;;;;;;19.79;65.88;100131.74;109270;1254;62823;-70
2023/07/22 05:18:12;;;;;;;3.60;2.60;;;;;;;19.86;65.87;100135.88;109362;1254;57515;-70
2023/07/22 05:20:39;;;;;;;3.90;2.60;;;;;;;19.94;65.88;100137.41;109494;1254;62516;-70
2023/07/22 05:23:07;;;;;;;3.30;2.70;;;;;;;20.02;65.28;100136.64;109328;1254;57343;-70
2023/07/22 05:25:35;;;;;;;3.90;2.70;;;;;;;20.10;64.87;100133.89;109318;1253;57272;-68
2023/07/22 05:28:02;;;;;;;3.10;2.80;;;;;;;20.18;64.55;100130.42;109456;1253;62832;-69
2023/07/22 05:30:30;;;;;;;5.40;2.80;;;;;;;20.25;64.43;100127.27;109401;1254;57677;-74
2023/07/22 05:33:02;;;;;;;3.10;2.10;;;;;;;20.34;64.18;100125.02;109319;1254;62425;-69
2023/07/22 05:35:30;;;;;;;4.00;2.30;;;;;;;20.41;63.72;100125.27;109427;1254;57251;-68
2023/07/22 05:37:58;;;;;;;5.70;2.40;;;;;;;20.49;63.20;100124.54;109347;1254;57496;-71
2023/07/22 05:40:25;;;;;;;4.00;2.20;;;;;;;20.57;63.01;100129.77;109389;1254;64260;-70
2023/07/22 05:42:53;;;;;;;4.50;2.00;;;;;;;20.64;62.99;100130.83;109367;1254;58162;-70
2023/07/22 05:45:20;;;;;;;2.50;2.00;;;;;;;20.70;62.74;100127.41;109451;1254;63828;-69
2023/07/22 05:47:48;;;;;;;3.00;2.40;;;;;;;20.76;62.75;100119.90;109436;1253;57432;-70
2023/07/22 05:50:15;;;;;;;2.80;2.10;;;;;;;20.82;62.35;100123.61;109486;1253;57427;-69
2023/07/22 05:52:43;;;;;;;5.60;2.20;;;;;;;20.87;61.91;100122.42;109474;1254;64230;-69
2023/07/22 05:55:11;;;;;;;3.00;2.30;;;;;;;20.92;61.71;100121.47;109345;1253;58285;-69
2023/07/22 05:57:38;;;;;;;5.10;2.40;;;;;;;20.97;61.62;100115.98;109316;1254;62529;-69
2023/07/22 06:00:08;;;;;;;3.60;2.10;;;;;;;21.03;61.67;100113.08;109305;1257;57315;-68
2023/07/22 06:02:40;;;;;;;4.70;2.00;;;;;;;21.10;61.41;100109.55;109127;1253;57267;-70
2023/07/22 06:05:09;;;;;;;3.80;2.30;;;;;;;21.21;61.21;100113.04;109201;1254;64177;-70
2023/07/22 06:07:36;;;;;;;2.60;2.20;;;;;;;21.30;61.14;100116.22;109319;1254;57489;-70
2023/07/22 06:10:04;;;;;;;5.10;2.40;;;;;;;21.36;60.99;100122.05;109212;1255;62590;-69
2023/07/22 06:12:32;;;;;;;3.40;2.20;;;;;;;21.41;60.78;100125.88;109151;1256;57319;-79
2023/07/22 06:15:00;;;;;;;4.20;2.20;;;;;;;21.43;60.98;100128.46;109029;1255;61915;-69
2023/07/22 06:17:27;;;;;;;2.60;2.30;;;;;;;21.44;60.97;100131.40;109171;1257;64131;-69
2023/07/22 06:19:55;;;;;;;3.20;2.40;;;;;;;21.43;60.72;100125.95;109177;1255;58158;-69
2023/07/22 06:22:22;;;;;;;3.70;2.10;;;;;;;21.43;60.82;100122.92;109096;1257;62455;-72
2023/07/22 06:24:52;;;;;;;5.90;2.20;;;;;;;21.43;60.66;100126.02;109223;1256;58146;-70
2023/07/22 06:27:19;;;;;;;4.90;2.00;;;;;;;21.39;60.13;100129.13;109200;1255;58113;-70
2023/07/22 06:29:47;;;;;;;2.20;2.00;;;;;;;21.36;60.20;100131.77;109241;1255;64890;-71
2023/07/22 06:32:14;;;;;;;2.50;2.00;;;;;;;21.34;60.62;100139.52;109283;1255;58295;-69
2023/07/22 06:34:42;;;;;;;2.80;2.50;;;;;;;21.32;60.93;100146.44;109151;1256;63721;-70
2023/07/22 06:37:10;;;;;;;4.40;2.70;;;;;;;21.27;61.51;100149.91;109157;1256;58051;-71
2023/07/22 06:39:38;;;;;;;5.50;3.10;;;;;;;21.20;62.09;100152.77;109041;1257;58236;-70
2023/07/22 06:42:06;;;;;;;6.30;2.80;;;;;;;21.11;62.84;100151.35;109074;1255;63698;-69
2023/07/22 06:44:34;;;;;;;5.90;2.90;;;;;;;21.06;63.36;100153.98;109204;1257;58235;-70
2023/07/22 06:47:01;;;;;;;3.90;2.80;;;;;;;21.03;63.82;100151.70;109213;1255;62496;-70
2023/07/22 06:49:28;;;;;;;4.80;3.30;;;;;;;20.99;64.28;100152.51;109164;1257;58251;-69
2023/07/22 06:51:56;;;;;;;6.90;3.50;;;;;;;20.93;64.68;100157.98;109161;1255;58067;-69
2023/07/22 06:54:25;;;;;;;4.60;3.40;;;;;;;20.88;65.19;100160.59;109242;1255;63728;-71
2023/07/22 06:57:13;;;;;;;5.40;3.60;;;;;;;20.81;65.54;100166.73;109092;1255;58577;-71
2023/07/22 06:59:46;;;;;;;4.80;3.90;;;;;;;20.70;65.76;100168.73;109135;1256;63762;-72
2023/07/22 07:02:13;;;;;;;5.60;4.20;;;;;;;20.65;66.06;100171.95;109154;1255;58168;-70
2023/07/22 07:04:41;;;;;;;6.10;4.20;;;;;;;20.62;66.28;100172.86;109313;1255;58087;-70
2023/07/22 07:07:08;;;;;;;4.60;4.20;;;;;;;20.60;66.48;100177.02;109122;1256;65004;-73
2023/07/22 07:09:36;;;;;;;4.40;4.00;;;;;;;20.58;66.71;100176.44;109152;1257;58241;-69
2023/07/22 07:12:04;;;;;;;5.50;4.10;;;;;;;20.57;66.74;100178.70;109234;1255;63857;-69
2023/07/22 07:14:35;;;;;;;6.30;4.10;;;;;;;20.59;67.09;100177.31;109203;1256;58132;-70
2023/07/22 07:17:03;;;;;;;7.00;4.50;;;;;;;20.61;67.03;100179.73;109205;1256;58232;-70
2023/07/22 07:19:30;;;;;;;7.20;4.50;;;;;;;20.61;66.73;100181.20;109361;1256;63865;-69
2023/07/22 07:26:31;;;;;;;6.80;4.10;;;;;;;20.62;66.71;100181.86;109203;1255;62556;-71
2023/07/22 07:28:58;;;;;;;4.70;4.20;;;;;;;20.62;66.76;100182.35;108960;1255;58147;-71
2023/07/22 07:31:27;;;;;;;4.50;4.10;;;;;;;20.61;66.88;100181.16;109120;1257;58289;-70
2023/07/22 07:33:57;;;;;;;5.50;4.20;;;;;;;20.63;67.22;100181.80;109163;1256;64889;-70
2023/07/22 07:36:25;;;;;;;7.60;3.90;;;;;;;20.66;67.26;100185.42;109154;1256;58177;-70
2023/07/22 07:38:53;;;;;;;4.20;3.80;;;;;;;20.65;67.22;100190.16;109098;1255;64240;-69
2023/07/22 07:50:44;;;;;;;6.80;4.00;;;;;;;20.51;67.55;100177.43;109294;1256;65076;-70
2023/07/22 07:57:46;;;;;;;7.30;4.20;;;;;;;20.38;68.04;100172.53;109225;1260;63867;-67
2023/07/22 08:00:16;;;;;;;6.20;4.30;;;;;;;20.32;68.33;100167.09;109139;1256;58184;-68
2023/07/22 08:02:44;;;;;;;4.50;4.10;;;;;;;20.29;68.79;100166.03;109149;1256;58192;-69
2023/07/22 08:10:04;;;;;;;4.00;3.60;;;;;;;20.24;68.39;100163.86;109275;1256;58436;-73
2023/07/22 08:12:32;;;;;;;4.40;2.90;;;;;;;20.18;67.95;100163.96;109274;1257;62587;-75
2023/07/22 08:15:00;;;;;;;3.90;3.40;;;;;;;20.11;67.53;100161.62;109290;1257;58204;-70
2023/07/22 08:17:28;;;;;;;4.30;3.50;;;;;;;20.05;67.67;100159.48;109116;1257;58177;-70
2023/07/22 08:19:56;;;;;;;4.20;3.20;;;;;;;20.04;68.06;100161.81;109103;1257;65036;-72
2023/07/22 08:22:24;;;;;;;5.10;3.70;;;;;;;20.02;68.42;100158.48;109177;1257;58494;-70
2023/07/22 08:24:52;;;;;;;4.30;3.50;;;;;;;19.97;68.65;100158.44;109122;1257;62522;-72
2023/07/22 08:27:24;;;;;;;3.90;3.50;;;;;;;19.95;68.92;100158.20;109048;1257;58208;-73
2023/07/22 08:29:52;;;;;;;5.20;3.30;;;;;;;19.93;69.07;100158.80;109123;1257;58284;-73
2023/07/22 08:32:20;;;;;;;6.60;3.60;;;;;;;19.89;69.07;100165.55;109097;1262;64973;-73
2023/07/22 08:34:52;;;;;;;3.80;3.40;;;;;;;19.83;69.35;100161.61;109237;1257;58161;-74
2023/07/22 08:37:22;;;;;;;4.40;3.60;;;;;;;19.79;69.58;100154.09;109145;1256;65837;-74
2023/07/22 08:39:50;;;;;;;5.90;3.40;;;;;;;19.78;69.96;100148.33;109100;1256;58075;-74
2023/07/22 08:42:18;;;;;;;5.00;3.30;;;;;;;19.77;70.34;100146.51;109247;1257;58264;-72
2023/07/22 08:44:48;;;;;;;3.60;3.20;;;;;;;19.74;70.50;100144.67;109169;1257;65017;-74
2023/07/22 08:47:16;;;;;;;6.40;3.50;;;;;;;19.71;70.39;100135.58;109174;1257;58438;-74
2023/07/22 08:49:46;;;;;;;6.60;3.30;;;;;;;19.67;70.51;100131.13;109168;1257;63835;-73
2023/07/22 08:52:14;;;;;;;6.20;3.20;;;;;;;19.65;70.72;100125.67;109119;1257;58203;-73
2023/07/22 08:54:42;;;;;;;4.70;3.50;;;;;;;19.65;70.85;100122.17;109166;1257;58280;-74
2023/07/22 08:57:11;;;;;;;4.90;3.30;;;;;;;19.68;71.23;100121.91;109100;1256;65044;-73
2023/07/22 08:59:39;;;;;;;4.30;3.50;;;;;;;19.70;71.46;100123.77;109169;1257;58244;-73
2023/07/22 09:02:10;;;;;;;5.90;3.10;;;;;;;19.70;71.50;100119.65;109240;1257;62435;-72
2023/07/22 09:04:38;;;;;;;6.20;3.50;;;;;;;19.69;71.40;100118.17;109125;1256;58235;-72
2023/07/22 09:07:07;;;;;;;4.80;3.20;;;;;;;19.69;71.53;100114.44;109258;1257;58197;-72
2023/07/22 09:09:36;;;;;;;3.80;3.50;;;;;;;19.71;71.59;100109.92;109104;1257;64978;-71
2023/07/22 09:12:07;;;;;;;3.60;3.30;;;;;;;19.72;71.52;100103.84;109072;1257;58235;-69
2023/07/22 09:14:38;;;;;;;3.90;3.50;;;;;;;19.71;71.52;100095.79;109136;1257;65011;-70
2023/07/22 09:17:08;;;;;;;4.00;3.10;;;;;;;19.71;71.57;100092.20;109072;1257;58151;-71
2023/07/22 09:19:38;;;;;;;4.40;3.20;;;;;;;19.72;71.71;100081.16;109192;1257;58657;-72
2023/07/22 09:22:11;;;;;;;5.00;3.60;;;;;;;19.74;71.71;100078.12;109015;1257;65010;-71
2023/07/22 09:24:41;;;;;;;4.40;3.40;;;;;;;19.76;71.97;100068.77;109029;1257;58170;-74
2023/07/22 09:27:12;;;;;;;3.80;3.20;;;;;;;19.78;71.90;100066.88;109089;1257;63741;-74
2023/07/22 09:29:44;;;;;;;4.70;3.60;;;;;;;19.83;72.11;100079.34;109129;1260;58275;-74
2023/07/22 09:32:15;;;;;;;3.80;3.50;;;;;;;19.86;72.12;100096.81;109168;1257;58168;-75
2023/07/22 09:35:07;;;;;;;7.40;4.20;;;;;;;19.85;72.14;100102.21;109133;1257;64936;-71
2023/07/22 09:37:38;;;;;;;5.50;2.80;;;;;;;19.86;72.19;100093.73;109062;1257;58186;-73
2023/07/22 09:40:23;;;;;;;5.70;3.90;;;;;;;19.84;72.07;100087.80;108959;1257;63753;-70
2023/07/22 09:43:02;;;;;;;5.50;4.30;;;;;;;19.80;72.20;100102.77;108930;1257;58224;-72
2023/07/22 09:45:39;;;;;;;5.00;4.40;;;;;;;19.78;72.33;100131.77;109095;1257;58498;-72
2023/07/22 09:48:10;;;;;;;5.10;4.10;;;;;;;19.76;72.53;100148.63;109009;1257;64885;-72
2023/07/22 09:50:41;;;;;;;5.40;4.80;;;;;;;19.74;72.68;100143.10;109096;1257;58230;-71
2023/07/22 09:53:15;;;;;;;7.10;4.80;;;;;;;19.73;72.94;100146.96;109014;1257;62539;-70
2023/07/22 09:55:46;;;;;;;5.90;4.50;;;;;;;19.72;73.11;100151.20;109103;1257;58098;-70
2023/07/22 09:58:16;;;;;;;5.90;4.30;;;;;;;19.72;73.32;100151.23;109101;1257;58045;-71
2023/07/22 10:00:48;;;;;;;5.10;4.20;;;;;;;19.72;73.51;100142.23;109073;1257;63842;-71
2023/07/22 10:03:20;;;;;;;6.80;4.60;;;;;;;19.75;73.75;100138.33;109038;1257;58202;-71
2023/07/22 10:05:51;;;;;;;6.40;4.50;;;;;;;19.79;73.88;100141.10;109049;1257;62506;-70
2023/07/22 10:08:22;;;;;;;6.80;4.70;;;;;;;19.81;74.07;100140.14;109138;1257;58103;-70
2023/07/22 10:18:45;;;;;;;5.80;4.40;;;;;;;19.80;74.62;100133.06;102548;1295;607718;-70
2023/07/22 10:21:12;;;;;;;5.90;4.00;;;;;;;19.76;74.75;100136.64;104934;1270;59270;-69
2023/07/22 10:23:39;;;;;;;5.00;3.90;;;;;;;19.72;74.57;100133.19;105148;1270;59273;-73
2023/07/22 10:26:07;;;;;;;6.00;4.00;;;;;;;19.66;74.38;100132.95;104933;1269;63490;-70
2023/07/22 10:28:34;;;;;;;4.10;3.70;;;;;;;19.59;74.11;100134.01;104939;1269;59302;-71
2023/07/22 10:31:02;;;;;;;7.70;4.10;;;;;;;19.51;73.89;100135.23;105009;1264;138751;-71
2023/07/22 10:33:30;;;;;;;4.70;3.40;;;;;;;19.42;73.89;100139.93;105174;1266;59298;-70
2023/07/22 10:36:13;;;;;;;4.10;3.20;;;;;;;19.34;73.87;100128.61;105099;1266;59177;-71
2023/07/22 10:38:40;;;;;;;4.30;3.10;;;;;;;19.24;73.32;100135.46;105184;1269;62593;-71
2023/07/22 10:41:13;;;;;;;2.60;2.40;;;;;;;19.10;73.01;100133.65;105349;1266;59351;-71
2023/07/22 10:43:41;;;;;;;2.90;2.50;;;;;;;19.01;72.89;100126.79;105205;1261;63132;-70
2023/07/22 10:46:10;;;;;;;3.30;2.70;;;;;;;18.91;72.79;100119.22;105299;1266;59547;-71
2023/07/22 10:48:39;;;;;;;5.20;2.80;;;;;;;18.82;73.02;100107.02;105243;1267;59868;-70
2023/07/22 10:51:12;;;;;;;4.20;2.70;;;;;;;18.75;73.26;100099.86;105250;1261;64463;-72
2023/07/22 10:53:50;;;;;;;4.70;3.00;;;;;;;18.70;73.51;100103.52;105306;1269;59851;-70
2023/07/22 10:56:19;;;;;;;3.50;2.80;;;;;;;18.66;73.56;100089.80;105087;1266;63710;-70
2023/07/22 10:58:47;;;;;;;3.70;3.00;;;;;;;18.65;73.68;100072.49;105227;1266;59548;-70
2023/07/22 11:01:27;;;;;;;3.30;3.00;;;;;;;18.66;73.98;100064.67;105055;1264;59737;-72
2023/07/22 11:04:10;;;;;;;3.70;3.20;;;;;;;18.70;74.39;100057.43;104987;1267;64200;-70
2023/07/22 11:07:04;;;;;;;4.00;3.00;;;;;;;18.76;74.72;100050.33;104914;1269;59707;-70
2023/07/22 11:09:33;;;;;;;4.60;3.50;;;;;;;18.82;75.20;100044.00;105477;1260;64063;-70
2023/07/22 11:12:10;;;;;;;6.70;3.90;;;;;;;18.88;75.73;100046.55;105749;1258;59629;-70
2023/07/22 11:14:39;;;;;;;11.00;6.70;;;;;;;18.94;76.01;100038.86;105730;1260;59048;-73
